createdAt,value
2017-07-12T00:01:59.122Z,20.00
2017-07-12T00:04:27.382Z,19.80
2017-07-12T00:06:54.841Z,19.70
2017-07-12T00:09:23.114Z,19.80
2017-07-12T00:11:50.666Z,19.70
2017-07-12T00:14:18.231Z,19.70
2017-07-12T00:16:45.713Z,19.70
2017-07-12T00:19:13.945Z,19.60
2017-07-12T00:21:41.572Z,19.60
2017-07-12T00:24:09.033Z,19.60
2017-07-12T00:26:36.502Z,19.60
2017-07-12T00:29:03.990Z,19.60
2017-07-12T00:31:31.451Z,19.70
2017-07-12T00:33:58.992Z,19.70
2017-07-12T00:36:26.572Z,19.70
2017-07-12T00:38:54.132Z,19.50
2017-07-12T00:41:22.393Z,19.40
2017-07-12T00:43:49.948Z,19.40
2017-07-12T00:46:17.408Z,19.40
2017-07-12T00:48:44.878Z,19.40
2017-07-12T00:51:12.431Z,19.30
2017-07-12T00:53:39.982Z,19.30
2017-07-12T00:56:07.446Z,19.30
2017-07-12T00:58:35.055Z,19.30
2017-07-12T01:01:02.597Z,19.40
2017-07-12T01:03:30.066Z,19.40
2017-07-12T01:05:57.568Z,19.40
2017-07-12T01:08:25.138Z,19.40
2017-07-12T01:10:52.627Z,19.30
2017-07-12T01:13:20.089Z,19.40
2017-07-12T01:15:47.608Z,19.40
2017-07-12T01:18:15.166Z,19.40
2017-07-12T01:20:42.648Z,19.40
2017-07-12T01:23:10.883Z,19.40
2017-07-12T01:25:38.354Z,19.40
2017-07-12T01:28:05.818Z,19.40
2017-07-12T01:30:34.137Z,19.40
2017-07-12T01:33:01.586Z,19.40
2017-07-12T01:35:29.107Z,19.40
2017-07-12T01:37:57.481Z,19.40
2017-07-12T01:40:25.035Z,19.30
2017-07-12T01:42:52.608Z,19.30
2017-07-12T01:45:20.149Z,19.30
2017-07-12T01:47:47.610Z,19.30
2017-07-12T01:50:15.081Z,19.30
2017-07-12T01:52:43.356Z,19.20
2017-07-12T01:55:11.592Z,19.20
2017-07-12T01:57:39.070Z,19.20
2017-07-12T02:00:06.644Z,19.20
2017-07-12T02:02:34.891Z,19.10
2017-07-12T02:05:02.369Z,19.10
2017-07-12T02:07:29.917Z,19.10
2017-07-12T02:09:57.390Z,19.00
2017-07-12T02:12:25.688Z,19.00
2017-07-12T02:14:53.141Z,18.90
2017-07-12T02:17:20.611Z,19.00
2017-07-12T02:19:48.068Z,18.90
2017-07-12T02:22:15.572Z,18.90
2017-07-12T02:24:43.031Z,18.80
2017-07-12T02:27:10.705Z,18.80
2017-07-12T02:29:38.960Z,18.80
2017-07-12T02:32:06.525Z,18.80
2017-07-12T02:34:34.103Z,18.80
2017-07-12T02:37:02.323Z,18.80
2017-07-12T02:39:29.793Z,18.80
2017-07-12T02:41:57.255Z,18.80
2017-07-12T02:44:24.712Z,18.80
2017-07-12T02:46:52.248Z,18.80
2017-07-12T02:49:19.796Z,18.80
2017-07-12T02:51:47.993Z,18.70
2017-07-12T02:54:15.472Z,18.70
2017-07-12T02:56:42.942Z,18.70
2017-07-12T02:59:10.492Z,18.70
2017-07-12T03:01:38.062Z,18.70
2017-07-12T03:04:05.623Z,18.70
2017-07-12T03:06:33.163Z,18.70
2017-07-12T03:09:00.628Z,18.70
2017-07-12T03:11:28.090Z,18.70
2017-07-12T03:13:55.548Z,18.70
2017-07-12T03:16:23.007Z,18.70
2017-07-12T03:18:51.274Z,18.60
2017-07-12T03:21:18.751Z,18.60
2017-07-12T03:23:46.972Z,18.60
2017-07-12T03:26:14.437Z,18.60
2017-07-12T03:28:42.027Z,18.60
2017-07-12T03:31:09.499Z,18.60
2017-07-12T03:33:36.978Z,18.50
2017-07-12T03:36:04.452Z,18.50
2017-07-12T03:38:31.909Z,18.60
2017-07-12T03:40:59.411Z,18.60
2017-07-12T03:43:26.884Z,18.60
2017-07-12T03:45:55.142Z,18.60
2017-07-12T03:48:22.615Z,18.50
2017-07-12T03:50:50.841Z,18.50
2017-07-12T03:53:18.332Z,18.50
2017-07-12T03:55:45.798Z,18.60
2017-07-12T03:58:14.053Z,18.60
2017-07-12T04:00:41.609Z,18.50
2017-07-12T04:03:09.596Z,18.60
2017-07-12T04:05:37.837Z,18.60
2017-07-12T04:08:05.307Z,18.60
2017-07-12T04:10:32.770Z,18.70
2017-07-12T04:13:00.228Z,18.70
2017-07-12T04:15:27.785Z,18.70
2017-07-12T04:17:55.367Z,18.70
2017-07-12T04:20:23.585Z,18.80
2017-07-12T04:22:51.131Z,18.70
2017-07-12T04:25:18.639Z,18.80
2017-07-12T04:27:46.199Z,18.80
2017-07-12T04:30:13.678Z,18.80
2017-07-12T04:32:41.894Z,18.90
2017-07-12T04:35:09.365Z,18.90
2017-07-12T04:37:36.829Z,19.00
2017-07-12T04:40:04.408Z,19.10
2017-07-12T04:42:32.638Z,19.10
2017-07-12T04:45:00.129Z,19.10
2017-07-12T04:47:27.589Z,19.20
2017-07-12T04:49:55.157Z,19.20
2017-07-12T04:52:23.390Z,19.20
2017-07-12T04:54:50.878Z,19.20
2017-07-12T04:57:18.434Z,19.30
2017-07-12T04:59:45.998Z,19.20
2017-07-12T05:02:13.560Z,19.20
2017-07-12T05:04:41.100Z,19.10
2017-07-12T05:07:08.576Z,19.20
2017-07-12T05:09:36.038Z,19.30
2017-07-12T05:12:04.302Z,19.30
2017-07-12T05:14:31.767Z,19.30
2017-07-12T05:17:00.050Z,19.20
2017-07-12T05:19:28.314Z,19.10
2017-07-12T05:21:55.792Z,19.10
2017-07-12T05:24:23.326Z,19.10
2017-07-12T05:26:50.780Z,19.20
2017-07-12T05:29:18.250Z,19.20
2017-07-12T05:31:46.510Z,19.30
2017-07-12T05:34:13.978Z,19.30
2017-07-12T05:36:41.523Z,19.50
2017-07-12T05:39:09.089Z,19.50
2017-07-12T05:41:36.554Z,19.50
2017-07-12T05:44:04.824Z,19.60
2017-07-12T05:46:32.279Z,19.50
2017-07-12T05:49:00.544Z,19.90
2017-07-12T05:51:28.019Z,19.90
2017-07-12T05:53:56.277Z,20.10
2017-07-12T05:56:23.741Z,20.10
2017-07-12T05:58:51.213Z,20.10
2017-07-12T06:01:19.475Z,20.00
2017-07-12T06:03:46.959Z,20.00
2017-07-12T06:06:14.482Z,20.10
2017-07-12T06:08:42.028Z,20.20
2017-07-12T06:11:09.608Z,20.30
2017-07-12T06:13:37.079Z,20.20
2017-07-12T06:16:05.388Z,19.90
2017-07-12T06:18:32.900Z,19.80
2017-07-12T06:21:01.134Z,19.90
2017-07-12T06:23:28.597Z,19.90
2017-07-12T06:25:56.087Z,19.90
2017-07-12T06:28:23.648Z,20.00
2017-07-12T06:30:51.912Z,20.30
2017-07-12T06:33:19.483Z,20.20
2017-07-12T06:35:47.760Z,20.60
2017-07-12T06:38:16.030Z,20.70
2017-07-12T06:40:43.488Z,20.70
2017-07-12T06:43:11.753Z,20.90
2017-07-12T06:45:39.306Z,20.80
2017-07-12T06:48:06.768Z,20.90
2017-07-12T06:50:34.322Z,21.00
2017-07-12T06:53:01.795Z,20.90
2017-07-12T06:55:29.254Z,20.90
2017-07-12T06:57:57.517Z,20.60
2017-07-12T07:00:25.067Z,20.50
2017-07-12T07:02:53.293Z,20.80
2017-07-12T07:05:20.771Z,20.90
2017-07-12T07:07:48.234Z,21.10
2017-07-12T07:10:15.716Z,21.30
2017-07-12T07:12:43.268Z,21.60
2017-07-12T07:15:10.825Z,21.80
2017-07-12T07:17:38.386Z,22.00
2017-07-12T07:20:05.868Z,21.90
2017-07-12T07:22:34.083Z,21.70
2017-07-12T07:25:01.545Z,21.60
2017-07-12T07:27:29.001Z,21.60
2017-07-12T07:29:56.462Z,21.70
2017-07-12T07:32:23.951Z,21.80
2017-07-12T07:34:51.496Z,21.90
2017-07-12T07:37:19.076Z,22.10
2017-07-12T07:39:46.633Z,22.10
2017-07-12T07:42:14.187Z,22.00
2017-07-12T07:44:41.733Z,22.10
2017-07-12T07:47:09.301Z,22.30
2017-07-12T07:49:36.902Z,22.50
2017-07-12T07:52:05.081Z,22.70
2017-07-12T07:54:32.593Z,22.60
2017-07-12T07:57:00.148Z,22.60
2017-07-12T07:59:27.628Z,22.50
2017-07-12T08:01:55.873Z,22.50
2017-07-12T08:04:23.450Z,22.50
2017-07-12T08:06:50.892Z,22.70
2017-07-12T08:09:18.459Z,23.00
2017-07-12T08:11:45.931Z,23.20
2017-07-12T08:14:14.180Z,23.10
2017-07-12T08:16:41.746Z,23.10
2017-07-12T08:19:09.309Z,23.20
2017-07-12T08:21:36.784Z,23.00
2017-07-12T08:24:05.028Z,22.60
2017-07-12T08:26:32.495Z,22.60
2017-07-12T08:29:00.057Z,22.40
2017-07-12T08:31:27.527Z,22.30
2017-07-12T08:33:55.796Z,22.50
2017-07-12T08:36:24.075Z,22.70
2017-07-12T08:38:52.335Z,22.90
2017-07-12T08:41:19.805Z,22.80
2017-07-12T08:43:47.272Z,22.90
2017-07-12T08:46:15.512Z,22.80
2017-07-12T08:48:42.974Z,22.80
2017-07-12T08:51:10.428Z,23.10
2017-07-12T08:53:38.003Z,23.20
2017-07-12T08:56:05.567Z,23.20
2017-07-12T08:58:33.030Z,23.00
2017-07-12T09:01:01.274Z,23.00
2017-07-12T09:03:28.724Z,22.90
2017-07-12T09:05:56.204Z,23.10
2017-07-12T09:08:23.769Z,23.20
2017-07-12T09:10:51.230Z,23.40
2017-07-12T09:13:19.464Z,23.70
2017-07-12T09:15:46.947Z,23.70
2017-07-12T09:18:14.418Z,23.60
2017-07-12T09:20:42.669Z,23.00
2017-07-12T09:23:10.939Z,22.90
2017-07-12T09:35:28.450Z,22.90
2017-07-12T09:37:55.994Z,22.80
2017-07-12T09:40:23.563Z,22.80
2017-07-12T09:42:51.104Z,23.00
2017-07-12T09:45:18.687Z,22.60
2017-07-12T09:47:46.923Z,22.60
2017-07-12T09:50:14.405Z,22.50
2017-07-12T09:52:41.973Z,22.70
2017-07-12T09:55:09.521Z,22.70
2017-07-12T09:57:37.116Z,22.60
2017-07-12T10:00:05.358Z,22.60
2017-07-12T10:02:32.914Z,22.60
2017-07-12T10:05:00.473Z,22.70
2017-07-12T10:07:28.025Z,22.50
2017-07-12T10:09:55.589Z,22.40
2017-07-12T10:12:23.153Z,22.50
2017-07-12T10:14:50.608Z,22.60
2017-07-12T10:17:18.162Z,22.60
2017-07-12T10:19:45.611Z,22.60
2017-07-12T10:22:13.078Z,22.40
2017-07-12T10:24:40.642Z,22.30
2017-07-12T10:27:08.189Z,22.30
2017-07-12T10:29:35.753Z,22.40
2017-07-12T10:32:03.223Z,22.50
2017-07-12T10:34:30.775Z,22.20
2017-07-12T10:36:58.318Z,22.20
2017-07-12T10:39:25.768Z,22.40
2017-07-12T10:41:53.230Z,22.20
2017-07-12T10:44:20.708Z,22.10
2017-07-12T10:46:48.254Z,22.10
2017-07-12T10:49:15.709Z,22.00
2017-07-12T10:51:43.271Z,21.80
2017-07-12T10:54:10.729Z,21.70
2017-07-12T10:56:38.289Z,21.60
2017-07-12T10:59:05.841Z,21.60
2017-07-12T11:01:33.287Z,21.50
2017-07-12T11:04:00.759Z,21.40
2017-07-12T11:06:28.313Z,21.40
2017-07-12T11:08:55.864Z,21.40
2017-07-12T11:11:23.326Z,21.40
2017-07-12T11:13:50.889Z,21.20
2017-07-12T11:16:18.356Z,21.20
2017-07-12T11:18:45.911Z,21.30
2017-07-12T11:21:13.462Z,21.40
2017-07-12T11:23:41.027Z,21.40
2017-07-12T11:26:08.587Z,21.40
2017-07-12T11:28:36.149Z,21.30
2017-07-12T11:31:03.709Z,21.20
2017-07-12T11:33:31.267Z,21.20
2017-07-12T11:35:58.728Z,21.10
2017-07-12T11:38:26.999Z,20.90
2017-07-12T11:40:54.545Z,20.90
2017-07-12T11:43:22.099Z,20.80
2017-07-12T11:45:49.561Z,20.80
2017-07-12T11:48:17.114Z,20.80
2017-07-12T11:50:44.578Z,20.80
2017-07-12T11:53:12.039Z,20.80
2017-07-12T11:55:39.595Z,20.70
2017-07-12T11:58:07.150Z,20.80
2017-07-12T12:00:34.612Z,20.80
2017-07-12T12:03:02.169Z,20.80
2017-07-12T12:05:29.783Z,20.80
2017-07-12T12:07:57.249Z,20.90
2017-07-12T12:10:24.799Z,20.80
2017-07-12T12:12:52.303Z,20.80
2017-07-12T12:15:19.859Z,20.80
2017-07-12T12:17:47.404Z,20.80
2017-07-12T12:20:14.877Z,20.90
2017-07-12T12:22:42.428Z,21.00
2017-07-12T12:25:09.882Z,20.80
2017-07-12T12:27:37.356Z,20.70
2017-07-12T12:30:05.618Z,20.60
2017-07-12T12:32:33.177Z,20.60
2017-07-12T12:35:00.630Z,20.50
2017-07-12T12:37:28.090Z,20.60
2017-07-12T12:39:55.638Z,20.60
2017-07-12T12:42:23.205Z,20.50
2017-07-12T12:44:51.491Z,20.20
2017-07-12T12:47:18.997Z,20.10
2017-07-12T12:49:46.539Z,20.20
2017-07-12T12:52:14.778Z,20.30
2017-07-12T12:54:42.255Z,20.30
2017-07-12T12:57:10.565Z,20.10
2017-07-12T12:59:38.021Z,20.10
2017-07-12T13:02:05.533Z,20.00
2017-07-12T13:04:38.798Z,20.00
2017-07-12T13:07:06.254Z,20.00
2017-07-12T13:09:33.725Z,20.00
2017-07-12T13:12:01.185Z,20.00
2017-07-12T13:14:28.724Z,19.90
2017-07-12T13:16:56.188Z,19.80
2017-07-12T13:19:23.753Z,19.90
2017-07-12T13:21:51.317Z,20.00
2017-07-12T13:24:18.865Z,20.20
2017-07-12T13:26:46.424Z,20.30
2017-07-12T13:29:14.001Z,20.30
2017-07-12T13:31:41.463Z,20.50
2017-07-12T13:34:09.713Z,20.70
2017-07-12T13:36:37.272Z,20.70
2017-07-12T13:39:04.743Z,20.70
2017-07-12T13:41:32.283Z,20.70
2017-07-12T13:43:59.873Z,20.50
2017-07-12T13:46:28.129Z,20.50
2017-07-12T13:48:55.589Z,20.50
2017-07-12T13:51:23.155Z,20.60
2017-07-12T13:53:50.619Z,20.70
2017-07-12T13:56:18.841Z,20.80
2017-07-12T13:58:46.338Z,20.80
2017-07-12T14:01:13.909Z,20.90
2017-07-12T14:03:41.449Z,20.90
2017-07-12T14:06:08.923Z,21.00
2017-07-12T14:08:37.179Z,20.90
2017-07-12T14:11:04.655Z,20.90
2017-07-12T14:13:32.920Z,21.00
2017-07-12T14:16:00.388Z,21.00
2017-07-12T14:18:28.645Z,21.00
2017-07-12T14:20:56.206Z,21.00
2017-07-12T14:23:23.659Z,21.00
2017-07-12T14:25:51.122Z,20.80
2017-07-12T14:28:18.679Z,20.80
2017-07-12T14:30:46.138Z,20.60
2017-07-12T14:33:13.703Z,20.40
2017-07-12T14:35:41.159Z,20.30
2017-07-12T14:38:08.651Z,20.30
2017-07-12T14:40:36.119Z,20.30
2017-07-12T14:43:03.638Z,20.30
2017-07-12T14:45:31.899Z,20.00
2017-07-12T14:47:59.355Z,20.00
2017-07-12T14:50:26.909Z,20.00
2017-07-12T14:52:54.501Z,19.90
2017-07-12T14:55:22.016Z,19.90
2017-07-12T14:57:49.490Z,19.90
2017-07-12T15:00:17.053Z,19.80
2017-07-12T15:02:44.592Z,19.80
2017-07-12T15:05:12.054Z,19.70
2017-07-12T15:07:39.505Z,19.60
2017-07-12T15:10:07.074Z,19.70
2017-07-12T15:12:34.540Z,19.70
2017-07-12T15:15:01.998Z,19.60
2017-07-12T15:17:29.550Z,19.60
2017-07-12T15:19:57.024Z,19.70
2017-07-12T15:22:25.471Z,19.60
2017-07-12T15:24:53.847Z,19.70
2017-07-12T15:27:21.306Z,19.60
2017-07-12T15:29:48.762Z,19.60
2017-07-12T15:32:16.321Z,19.70
2017-07-12T15:34:43.794Z,19.70
2017-07-12T15:37:11.254Z,19.80
2017-07-12T15:39:38.713Z,19.80
2017-07-12T15:42:06.983Z,19.80
2017-07-12T15:44:34.424Z,19.80
2017-07-12T15:47:04.124Z,19.80
2017-07-12T15:49:31.597Z,19.60
2017-07-12T15:51:59.148Z,19.40
2017-07-12T15:54:26.618Z,19.30
2017-07-12T15:56:54.161Z,19.20
2017-07-12T15:59:21.622Z,19.10
2017-07-12T16:01:49.186Z,19.00
2017-07-12T16:04:16.736Z,18.90
2017-07-12T16:06:44.192Z,18.90
2017-07-12T16:09:11.651Z,18.80
2017-07-12T16:11:39.106Z,18.80
2017-07-12T16:14:06.732Z,18.90
2017-07-12T16:16:34.225Z,18.80
2017-07-12T16:19:01.795Z,18.70
2017-07-12T16:21:29.354Z,18.70
2017-07-12T16:23:56.910Z,18.70
2017-07-12T16:26:24.457Z,18.90
2017-07-12T16:28:51.935Z,18.80
2017-07-12T16:31:21.098Z,18.80
2017-07-12T16:33:48.632Z,18.80
2017-07-12T16:36:16.134Z,18.80
2017-07-12T16:38:43.699Z,18.90
2017-07-12T16:41:11.379Z,18.80
2017-07-12T16:43:39.619Z,18.70
2017-07-12T16:46:07.080Z,18.70
2017-07-12T16:48:34.561Z,18.70
2017-07-12T16:51:02.827Z,18.60
2017-07-12T16:53:30.390Z,18.50
2017-07-12T16:55:57.859Z,18.60
2017-07-12T16:58:26.077Z,18.60
2017-07-12T17:00:53.551Z,18.50
2017-07-12T17:03:20.996Z,18.60
2017-07-12T17:05:48.466Z,18.50
2017-07-12T17:08:15.922Z,18.50
2017-07-12T17:10:43.406Z,18.40
2017-07-12T17:13:11.656Z,18.50
2017-07-12T17:15:39.129Z,18.40
2017-07-12T17:18:06.637Z,18.70
2017-07-12T17:20:34.818Z,18.70
2017-07-12T17:23:02.286Z,18.60
2017-07-12T17:25:29.770Z,18.60
2017-07-12T17:27:57.326Z,18.60
2017-07-12T17:30:24.843Z,18.60
2017-07-12T17:32:52.305Z,18.60
2017-07-12T17:35:19.775Z,18.60
2017-07-12T17:37:47.300Z,18.50
2017-07-12T17:40:14.828Z,18.60
2017-07-12T17:42:43.151Z,18.50
2017-07-12T17:45:10.646Z,18.40
2017-07-12T17:47:38.097Z,18.40
2017-07-12T17:50:05.562Z,18.30
2017-07-12T17:52:33.134Z,18.30
2017-07-12T17:55:01.396Z,18.20
2017-07-12T17:57:28.848Z,18.10
2017-07-12T17:59:56.415Z,18.10
2017-07-12T18:02:24.685Z,17.90
2017-07-12T18:04:52.146Z,17.90
2017-07-12T18:07:19.601Z,18.00
2017-07-12T18:09:47.153Z,18.00
2017-07-12T18:12:14.613Z,17.90
2017-07-12T18:14:42.112Z,17.90
2017-07-12T18:17:10.378Z,17.90
2017-07-12T18:19:37.945Z,17.80
2017-07-12T18:22:05.468Z,17.90
2017-07-12T18:24:32.916Z,17.90
2017-07-12T18:27:00.826Z,17.90
2017-07-12T18:29:28.359Z,17.90
2017-07-12T18:31:56.588Z,17.90
2017-07-12T18:34:24.070Z,17.80
2017-07-12T18:36:51.568Z,17.80
2017-07-12T18:39:19.090Z,17.80
2017-07-12T18:41:46.563Z,17.80
2017-07-12T18:44:14.789Z,17.80
2017-07-12T18:46:43.125Z,17.70
2017-07-12T18:49:11.129Z,17.70
2017-07-12T18:51:39.597Z,17.70
2017-07-12T18:54:07.691Z,17.70
2017-07-12T18:56:35.281Z,17.60
2017-07-12T18:59:04.279Z,17.50
2017-07-12T19:01:32.516Z,17.50
2017-07-12T19:04:00.002Z,17.50
2017-07-12T19:06:27.553Z,17.60
2017-07-12T19:08:55.489Z,17.50
2017-07-12T19:11:23.100Z,17.60
2017-07-12T19:13:51.326Z,17.50
2017-07-12T19:16:18.832Z,17.40
2017-07-12T19:18:47.666Z,17.50
2017-07-12T19:21:16.086Z,17.50
2017-07-12T19:23:43.555Z,17.50
2017-07-12T19:26:11.111Z,17.40
2017-07-12T19:28:39.950Z,17.40
2017-07-12T19:31:07.555Z,17.30
2017-07-12T19:33:35.816Z,17.30
2017-07-12T19:36:04.402Z,17.20
2017-07-12T19:38:33.036Z,17.20
2017-07-12T19:41:01.451Z,17.10
2017-07-12T19:43:29.241Z,17.10
2017-07-12T19:45:56.711Z,17.00
2017-07-12T19:48:24.956Z,16.90
2017-07-12T19:50:52.512Z,16.80
2017-07-12T19:53:20.094Z,16.90
2017-07-12T19:55:48.366Z,16.80
2017-07-12T19:58:15.849Z,16.70
2017-07-12T20:00:43.386Z,16.80
2017-07-12T20:03:11.659Z,16.90
2017-07-12T20:05:39.106Z,16.80
2017-07-12T20:08:06.591Z,16.80
2017-07-12T20:10:34.110Z,16.80
2017-07-12T20:13:01.654Z,16.80
2017-07-12T20:15:29.124Z,16.90
2017-07-12T20:17:56.577Z,16.90
2017-07-12T20:20:24.050Z,16.90
2017-07-12T20:22:51.605Z,16.80
2017-07-12T20:25:19.159Z,16.80
2017-07-12T20:27:46.615Z,16.70
2017-07-12T20:30:14.177Z,16.70
2017-07-12T20:32:41.637Z,16.70
2017-07-12T20:35:09.198Z,16.70
2017-07-12T20:37:36.653Z,16.80
2017-07-12T20:40:04.211Z,16.70
2017-07-12T20:42:31.778Z,16.70
2017-07-12T20:44:59.259Z,16.60
2017-07-12T20:47:26.727Z,16.60
2017-07-12T20:49:54.238Z,16.60
2017-07-12T20:52:21.704Z,16.60
2017-07-12T20:54:49.164Z,16.60
2017-07-12T20:57:17.396Z,16.60
2017-07-12T20:59:44.872Z,16.60
2017-07-12T21:02:12.448Z,16.50
2017-07-12T21:04:40.009Z,16.40
2017-07-12T21:07:07.567Z,16.30
2017-07-12T21:09:35.122Z,16.20
2017-07-12T21:12:02.678Z,16.10
2017-07-12T21:14:30.237Z,16.10
2017-07-12T21:16:57.803Z,15.90
2017-07-12T21:19:26.042Z,15.90
2017-07-12T21:21:53.531Z,15.80
2017-07-12T21:24:21.001Z,15.90
2017-07-12T21:26:49.317Z,15.70
2017-07-12T21:29:16.822Z,15.70
2017-07-12T21:31:44.368Z,15.60
2017-07-12T21:34:11.933Z,15.30
2017-07-12T21:36:39.496Z,15.10
2017-07-12T21:39:06.904Z,15.00
2017-07-12T21:41:34.400Z,15.00
2017-07-12T21:44:01.979Z,14.80
2017-07-12T21:46:30.247Z,14.80
2017-07-12T21:48:57.716Z,14.80
2017-07-12T21:51:25.983Z,14.80
2017-07-12T21:54:12.029Z,14.70
2017-07-12T21:56:57.158Z,14.70
2017-07-12T21:59:43.059Z,14.70
2017-07-12T22:02:28.494Z,14.60
2017-07-12T22:05:13.835Z,14.70
2017-07-12T22:07:59.150Z,14.70
2017-07-12T22:10:44.149Z,14.80
2017-07-12T22:13:29.269Z,14.70
2017-07-12T22:16:14.443Z,14.80
2017-07-12T22:18:59.782Z,14.80
2017-07-12T22:21:44.967Z,14.80
2017-07-12T22:24:30.166Z,14.80
2017-07-12T22:27:15.504Z,14.80
2017-07-12T22:30:00.797Z,14.80
2017-07-12T22:32:45.959Z,14.90
2017-07-12T22:35:31.133Z,14.90
2017-07-12T22:38:04.339Z,15.00
2017-07-12T22:40:37.488Z,14.90
2017-07-12T22:43:10.593Z,15.00
2017-07-12T22:45:38.046Z,14.90
2017-07-12T22:48:05.571Z,15.00
2017-07-12T22:50:33.793Z,15.00
2017-07-12T22:53:01.304Z,15.00
2017-07-12T22:55:29.555Z,15.10
2017-07-12T22:57:57.040Z,15.00
2017-07-12T23:00:25.271Z,15.00
2017-07-12T23:02:52.792Z,15.00
2017-07-12T23:05:20.313Z,15.00
2017-07-12T23:07:47.790Z,15.00
2017-07-12T23:10:16.032Z,15.00
2017-07-12T23:12:43.609Z,14.90
2017-07-12T23:15:11.154Z,14.90
2017-07-12T23:17:38.722Z,15.00
2017-07-12T23:20:06.181Z,15.00
2017-07-12T23:22:33.732Z,15.00
2017-07-12T23:25:01.239Z,14.90
2017-07-12T23:27:30.929Z,14.90
2017-07-12T23:29:59.192Z,14.90
2017-07-12T23:32:27.456Z,14.90
2017-07-12T23:34:55.014Z,14.80
2017-07-12T23:37:22.491Z,14.90
2017-07-12T23:39:50.757Z,14.90
2017-07-12T23:42:19.023Z,14.90
2017-07-12T23:44:47.308Z,14.90
2017-07-12T23:47:15.528Z,14.80
2017-07-12T23:49:43.013Z,14.80
2017-07-12T23:52:10.479Z,14.90
2017-07-12T23:54:37.951Z,14.90
2017-07-12T23:57:06.169Z,14.80
2017-07-12T23:59:33.678Z,14.80
